createdAt,value
2023-05-19T00:00:02.371Z,0.00
2023-05-19T00:01:02.030Z,0.00
2023-05-19T00:02:02.189Z,0.00
2023-05-19T00:03:02.111Z,0.00
2023-05-19T00:04:01.910Z,0.00
2023-05-19T00:05:01.996Z,0.00
2023-05-19T00:06:01.916Z,0.00
2023-05-19T00:07:01.938Z,0.00
2023-05-19T00:08:01.832Z,0.00
2023-05-19T00:09:01.834Z,0.00
2023-05-19T00:10:01.700Z,0.00
2023-05-19T00:11:02.045Z,0.00
2023-05-19T00:12:01.558Z,0.00
2023-05-19T00:13:01.558Z,0.00
2023-05-19T00:14:01.466Z,0.00
2023-05-19T00:15:01.444Z,0.00
2023-05-19T00:16:01.489Z,0.00
2023-05-19T00:17:01.377Z,0.00
2023-05-19T00:18:01.309Z,0.00
2023-05-19T00:19:01.446Z,0.00
2023-05-19T00:20:01.467Z,0.00
2023-05-19T00:21:01.182Z,0.00
2023-05-19T00:22:01.138Z,0.00
2023-05-19T00:23:01.212Z,0.00
2023-05-19T00:24:01.036Z,0.00
2023-05-19T00:25:01.015Z,0.00
2023-05-19T00:26:00.973Z,0.00
2023-05-19T00:27:01.092Z,0.00
2023-05-19T00:28:00.856Z,0.00
2023-05-19T00:29:00.849Z,0.00
2023-05-19T00:30:00.768Z,0.00
2023-05-19T00:31:00.854Z,0.00
2023-05-19T00:32:00.738Z,0.00
2023-05-19T00:33:00.749Z,0.00
2023-05-19T00:34:00.616Z,0.00
2023-05-19T00:35:00.692Z,0.00
2023-05-19T00:36:00.515Z,0.00
2023-05-19T00:37:00.906Z,0.00
2023-05-19T00:38:00.424Z,0.00
2023-05-19T00:39:00.376Z,0.00
2023-05-19T00:40:00.534Z,0.00
2023-05-19T00:41:00.290Z,0.00
2023-05-19T00:42:00.327Z,0.00
2023-05-19T00:43:00.238Z,0.00
2023-05-19T00:44:00.348Z,0.00
2023-05-19T00:45:00.183Z,0.00
2023-05-19T00:46:00.154Z,0.00
2023-05-19T00:47:00.188Z,0.00
2023-05-19T00:48:00.228Z,0.00
2023-05-19T00:49:00.049Z,0.00
2023-05-19T00:49:59.979Z,0.00
2023-05-19T00:50:59.855Z,0.00
2023-05-19T00:51:59.989Z,0.00
2023-05-19T00:52:59.777Z,0.00
2023-05-19T00:53:59.797Z,0.00
2023-05-19T00:54:59.692Z,0.00
2023-05-19T00:55:59.865Z,0.00
2023-05-19T00:56:59.591Z,0.00
2023-05-19T00:57:59.647Z,0.00
2023-05-19T00:58:59.499Z,0.00
2023-05-19T00:59:59.654Z,0.00
2023-05-19T01:00:59.436Z,0.00
2023-05-19T01:01:59.421Z,0.00
2023-05-19T01:02:59.451Z,0.00
2023-05-19T01:03:59.629Z,0.00
2023-05-19T01:04:59.337Z,0.00
2023-05-19T01:05:59.281Z,0.00
2023-05-19T01:06:59.154Z,0.00
2023-05-19T01:07:59.347Z,0.00
2023-05-19T01:08:59.073Z,0.00
2023-05-19T01:09:59.101Z,0.00
2023-05-19T01:10:59.014Z,0.00
2023-05-19T01:11:59.111Z,0.00
2023-05-19T01:12:58.889Z,0.00
2023-05-19T01:13:58.847Z,0.00
2023-05-19T01:14:59.150Z,0.00
2023-05-19T01:15:58.851Z,0.00
2023-05-19T01:16:59.003Z,0.00
2023-05-19T01:17:58.812Z,0.00
2023-05-19T01:18:58.781Z,0.00
2023-05-19T01:19:58.585Z,0.00
2023-05-19T01:20:58.561Z,0.00
2023-05-19T01:21:58.786Z,0.00
2023-05-19T01:22:58.450Z,0.00
2023-05-19T01:23:58.592Z,0.00
2023-05-19T01:24:58.363Z,0.00
2023-05-19T01:25:58.396Z,0.00
2023-05-19T01:26:58.453Z,0.00
2023-05-19T01:27:58.422Z,0.00
2023-05-19T01:28:58.191Z,0.00
2023-05-19T01:29:58.228Z,0.00
2023-05-19T01:30:58.225Z,0.00
2023-05-19T01:31:58.122Z,0.00
2023-05-19T01:32:58.301Z,0.00
2023-05-19T01:33:57.976Z,0.00
2023-05-19T01:34:58.070Z,0.00
2023-05-19T01:35:57.881Z,0.00
2023-05-19T01:36:57.853Z,0.00
2023-05-19T01:37:57.874Z,0.00
2023-05-19T01:38:57.793Z,0.00
2023-05-19T01:39:57.890Z,0.00
2023-05-19T01:40:57.663Z,0.00
2023-05-19T01:41:57.699Z,0.00
2023-05-19T01:42:57.831Z,0.00
2023-05-19T01:43:57.724Z,0.00
2023-05-19T01:44:57.578Z,0.00
2023-05-19T01:45:57.569Z,0.00
2023-05-19T01:46:57.401Z,0.00
2023-05-19T01:47:57.627Z,0.00
2023-05-19T01:48:57.326Z,0.00
2023-05-19T01:49:57.554Z,0.00
2023-05-19T01:50:57.267Z,0.00
2023-05-19T01:51:57.376Z,0.00
2023-05-19T01:52:57.140Z,0.00
2023-05-19T01:53:57.170Z,0.00
2023-05-19T01:54:57.102Z,0.00
2023-05-19T01:55:57.206Z,0.00
2023-05-19T01:56:56.965Z,0.00
2023-05-19T01:57:57.000Z,0.00
2023-05-19T01:58:56.904Z,0.00
2023-05-19T01:59:56.862Z,0.00
2023-05-19T02:00:56.823Z,0.00
2023-05-19T02:01:57.030Z,0.00
2023-05-19T02:02:56.758Z,0.00
2023-05-19T02:03:56.868Z,0.00
2023-05-19T02:04:56.625Z,0.00
2023-05-19T02:05:56.576Z,0.00
2023-05-19T02:06:56.525Z,0.00
2023-05-19T02:07:56.668Z,0.00
2023-05-19T02:08:56.452Z,0.00
2023-05-19T02:09:56.473Z,0.00
2023-05-19T02:10:56.547Z,0.00
2023-05-19T02:11:56.310Z,0.00
2023-05-19T02:12:56.254Z,0.00
2023-05-19T02:13:56.293Z,0.00
2023-05-19T02:14:56.167Z,0.00
2023-05-19T02:15:57.364Z,0.00
2023-05-19T02:16:56.107Z,0.00
2023-05-19T02:17:56.077Z,0.00
2023-05-19T02:18:56.148Z,0.00
2023-05-19T02:19:55.950Z,0.00
2023-05-19T02:20:56.142Z,0.00
2023-05-19T02:21:55.857Z,0.00
2023-05-19T02:22:56.365Z,0.00
2023-05-19T02:23:55.947Z,0.00
2023-05-19T02:24:55.966Z,0.00
2023-05-19T02:25:55.690Z,0.00
2023-05-19T02:26:55.792Z,0.00
2023-05-19T02:27:55.611Z,0.00
2023-05-19T02:28:55.568Z,0.00
2023-05-19T02:29:55.717Z,0.00
2023-05-19T02:30:55.456Z,0.00
2023-05-19T02:31:55.764Z,0.00
2023-05-19T02:32:55.407Z,0.00
2023-05-19T02:33:55.522Z,0.00
2023-05-19T02:34:55.537Z,0.00
2023-05-19T02:35:55.239Z,0.00
2023-05-19T02:36:55.337Z,0.00
2023-05-19T02:37:55.170Z,0.00
2023-05-19T02:38:55.350Z,0.00
2023-05-19T02:39:55.066Z,0.00
2023-05-19T02:40:55.018Z,0.00
2023-05-19T02:41:55.015Z,0.00
2023-05-19T02:42:55.172Z,0.00
2023-05-19T02:43:55.037Z,0.00
2023-05-19T02:44:55.016Z,0.00
2023-05-19T02:45:54.861Z,0.00
2023-05-19T02:46:54.873Z,0.00
2023-05-19T02:47:54.748Z,0.00
2023-05-19T02:48:54.815Z,0.00
2023-05-19T02:49:54.642Z,0.00
2023-05-19T02:50:54.823Z,0.00
2023-05-19T02:51:54.642Z,0.00
2023-05-19T02:52:54.684Z,0.00
2023-05-19T02:53:54.660Z,0.00
2023-05-19T02:54:54.398Z,0.00
2023-05-19T02:55:54.459Z,0.00
2023-05-19T02:56:54.308Z,0.00
2023-05-19T02:57:54.469Z,0.00
2023-05-19T02:58:54.414Z,0.00
2023-05-19T02:59:54.283Z,0.00
2023-05-19T03:00:54.133Z,0.00
2023-05-19T03:01:54.327Z,0.00
2023-05-19T03:02:54.093Z,0.00
2023-05-19T03:03:54.092Z,0.00
2023-05-19T03:04:54.170Z,0.00
2023-05-19T03:05:54.117Z,0.00
2023-05-19T03:06:53.886Z,0.00
2023-05-19T03:07:53.929Z,0.00
2023-05-19T03:08:53.802Z,0.00
2023-05-19T03:09:53.762Z,0.00
2023-05-19T03:10:53.706Z,0.00
2023-05-19T03:11:53.798Z,0.00
2023-05-19T03:12:53.602Z,0.00
2023-05-19T03:13:53.972Z,0.00
2023-05-19T03:14:53.532Z,0.00
2023-05-19T03:15:53.530Z,0.00
2023-05-19T03:16:53.766Z,0.00
2023-05-19T03:17:53.433Z,0.00
2023-05-19T03:18:53.641Z,0.00
2023-05-19T03:19:53.330Z,0.00
2023-05-19T03:20:53.412Z,0.00
2023-05-19T03:21:53.205Z,0.00
2023-05-19T03:22:53.430Z,0.00
2023-05-19T03:23:53.118Z,0.00
2023-05-19T03:24:53.235Z,0.00
2023-05-19T03:25:53.290Z,0.00
2023-05-19T03:26:53.252Z,0.00
2023-05-19T03:27:52.949Z,0.00
2023-05-19T03:28:54.088Z,0.00
2023-05-19T03:29:52.858Z,0.00
2023-05-19T03:30:53.077Z,0.00
2023-05-19T03:31:52.792Z,0.00
2023-05-19T03:32:52.795Z,0.00
2023-05-19T03:33:52.675Z,0.00
2023-05-19T03:34:52.907Z,0.00
2023-05-19T03:35:52.583Z,0.00
2023-05-19T03:36:52.706Z,0.00
2023-05-19T03:37:52.764Z,0.00
2023-05-19T03:38:52.526Z,0.00
2023-05-19T03:39:52.416Z,5.63
2023-05-19T03:40:52.742Z,5.63
2023-05-19T03:41:52.321Z,5.63
2023-05-19T03:42:53.371Z,5.63
2023-05-19T03:43:52.234Z,5.63
2023-05-19T03:44:52.189Z,5.63
2023-05-19T03:45:52.153Z,5.63
2023-05-19T03:46:52.380Z,11.25
2023-05-19T03:47:52.102Z,11.25
2023-05-19T03:48:52.200Z,11.25
2023-05-19T03:49:52.239Z,11.25
2023-05-19T03:50:51.923Z,11.25
2023-05-19T03:51:51.879Z,16.88
2023-05-19T03:52:52.020Z,16.88
2023-05-19T03:53:51.811Z,16.88
2023-05-19T03:54:51.829Z,22.50
2023-05-19T03:55:51.706Z,22.50
2023-05-19T03:56:51.662Z,22.50
2023-05-19T03:57:51.740Z,28.13
2023-05-19T03:58:51.589Z,28.13
2023-05-19T03:59:51.752Z,28.13
2023-05-19T04:00:51.499Z,33.75
2023-05-19T04:01:51.643Z,33.75
2023-05-19T04:02:51.737Z,33.75
2023-05-19T04:03:51.582Z,39.38
2023-05-19T04:04:51.443Z,39.38
2023-05-19T04:05:51.390Z,45.00
2023-05-19T04:06:51.220Z,45.00
2023-05-19T04:07:51.165Z,45.00
2023-05-19T04:08:51.165Z,50.63
2023-05-19T04:09:51.217Z,50.63
2023-05-19T04:10:51.050Z,56.25
2023-05-19T04:11:51.437Z,56.25
2023-05-19T04:12:50.948Z,61.88
2023-05-19T04:13:50.897Z,61.88
2023-05-19T04:14:51.062Z,67.50
2023-05-19T04:15:50.838Z,67.50
2023-05-19T04:16:50.881Z,73.13
2023-05-19T04:17:50.765Z,78.75
2023-05-19T04:18:50.961Z,78.75
2023-05-19T04:19:51.101Z,84.38
2023-05-19T04:20:50.587Z,90.00
2023-05-19T04:21:50.704Z,90.00
2023-05-19T04:22:50.496Z,95.63
2023-05-19T04:23:50.716Z,101.25
2023-05-19T04:24:50.412Z,106.88
2023-05-19T04:25:50.404Z,106.88
2023-05-19T04:26:50.366Z,112.50
2023-05-19T04:27:50.530Z,118.13
2023-05-19T04:28:50.273Z,123.75
2023-05-19T04:29:50.333Z,129.38
2023-05-19T04:30:50.155Z,129.38
2023-05-19T04:31:50.198Z,135.00
2023-05-19T04:32:50.102Z,140.63
2023-05-19T04:33:50.160Z,146.25
2023-05-19T04:34:49.962Z,146.25
2023-05-19T04:35:50.174Z,151.88
2023-05-19T04:36:52.415Z,157.50
2023-05-19T04:37:49.850Z,163.13
2023-05-19T04:38:49.782Z,168.75
2023-05-19T04:39:50.004Z,174.38
2023-05-19T04:40:49.697Z,180.00
2023-05-19T04:41:49.807Z,180.00
2023-05-19T04:42:49.876Z,185.63
2023-05-19T04:43:49.826Z,185.63
2023-05-19T04:44:49.515Z,191.25
2023-05-19T04:45:49.639Z,196.88
2023-05-19T04:46:49.474Z,202.50
2023-05-19T04:47:49.704Z,202.50
2023-05-19T04:48:49.358Z,208.13
2023-05-19T04:49:49.472Z,213.75
2023-05-19T04:50:49.258Z,219.38
2023-05-19T04:51:49.490Z,219.38
2023-05-19T04:52:49.157Z,230.63
2023-05-19T04:53:49.405Z,230.63
2023-05-19T04:54:49.361Z,230.63
2023-05-19T04:55:49.027Z,230.63
2023-05-19T04:56:48.995Z,236.25
2023-05-19T04:57:49.109Z,236.25
2023-05-19T04:58:48.992Z,241.88
2023-05-19T04:59:49.125Z,241.88
2023-05-19T05:00:48.809Z,236.25
2023-05-19T05:01:48.797Z,236.25
2023-05-19T05:02:48.772Z,236.25
2023-05-19T05:03:48.991Z,241.88
2023-05-19T05:04:49.013Z,247.50
2023-05-19T05:05:48.759Z,247.50
2023-05-19T05:06:48.547Z,253.13
2023-05-19T05:07:48.502Z,247.50
2023-05-19T05:08:48.449Z,253.13
2023-05-19T05:09:48.583Z,241.88
2023-05-19T05:10:48.421Z,241.88
2023-05-19T05:11:48.597Z,247.50
2023-05-19T05:12:48.270Z,247.50
2023-05-19T05:13:48.649Z,247.50
2023-05-19T05:14:48.186Z,247.50
2023-05-19T05:15:48.424Z,247.50
2023-05-19T05:16:48.122Z,241.88
2023-05-19T05:17:48.259Z,236.25
2023-05-19T05:18:48.070Z,236.25
2023-05-19T05:19:48.263Z,230.63
2023-05-19T05:20:47.920Z,230.63
2023-05-19T05:21:48.072Z,236.25
2023-05-19T05:22:47.836Z,236.25
2023-05-19T05:23:48.066Z,241.88
2023-05-19T05:24:47.746Z,241.88
2023-05-19T05:25:47.722Z,247.50
2023-05-19T05:26:47.662Z,247.50
2023-05-19T05:27:47.892Z,253.13
2023-05-19T05:28:47.590Z,264.38
2023-05-19T05:29:47.701Z,275.63
2023-05-19T05:30:47.766Z,292.50
2023-05-19T05:31:47.712Z,303.75
2023-05-19T05:32:47.628Z,326.25
2023-05-19T05:33:47.394Z,343.13
2023-05-19T05:34:47.533Z,337.50
2023-05-19T05:35:47.273Z,343.13
2023-05-19T05:36:48.005Z,354.38
2023-05-19T05:37:48.376Z,365.63
2023-05-19T05:38:47.131Z,365.63
2023-05-19T05:39:47.390Z,360.00
2023-05-19T05:40:47.042Z,354.38
2023-05-19T05:41:47.173Z,371.25
2023-05-19T05:42:47.240Z,382.50
2023-05-19T05:43:47.200Z,388.13
2023-05-19T05:44:47.001Z,399.38
2023-05-19T05:45:46.839Z,399.38
2023-05-19T05:46:47.012Z,388.13
2023-05-19T05:47:46.770Z,376.88
2023-05-19T05:48:46.820Z,382.50
2023-05-19T05:49:46.844Z,388.13
2023-05-19T05:50:46.623Z,388.13
2023-05-19T05:51:54.626Z,393.75
2023-05-19T05:52:46.526Z,399.38
2023-05-19T05:53:46.651Z,399.38
2023-05-19T05:54:46.439Z,410.63
2023-05-19T05:55:46.668Z,399.38
2023-05-19T05:56:46.471Z,388.13
2023-05-19T05:57:46.301Z,388.13
2023-05-19T05:58:46.486Z,393.75
2023-05-19T05:59:46.217Z,405.00
2023-05-19T06:03:47.467Z,416.25
2023-05-19T06:04:47.569Z,405.00
2023-05-19T06:05:47.403Z,421.88
2023-05-19T06:06:47.328Z,455.63
2023-05-19T06:07:47.378Z,489.38
2023-05-19T06:08:47.205Z,483.75
2023-05-19T06:09:47.152Z,461.25
2023-05-19T06:10:47.569Z,455.63
2023-05-19T06:11:47.053Z,461.25
2023-05-19T06:12:47.412Z,466.88
2023-05-19T06:13:46.982Z,483.75
2023-05-19T06:14:47.222Z,495.00
2023-05-19T06:15:46.892Z,511.88
2023-05-19T06:16:47.031Z,517.50
2023-05-19T06:17:46.844Z,528.75
2023-05-19T06:18:47.082Z,523.13
2023-05-19T06:19:46.847Z,489.38
2023-05-19T06:20:46.669Z,466.88
2023-05-19T06:21:46.623Z,461.25
2023-05-19T06:22:49.121Z,472.50
2023-05-19T06:23:46.540Z,478.13
2023-05-19T06:24:46.696Z,472.50
2023-05-19T06:25:46.454Z,461.25
2023-05-19T06:26:46.704Z,472.50
2023-05-19T06:27:46.499Z,489.38
2023-05-19T06:28:46.347Z,500.63
2023-05-19T06:29:46.524Z,511.88
2023-05-19T06:30:46.225Z,517.50
2023-05-19T06:31:46.433Z,528.75
2023-05-19T06:32:46.189Z,511.88
2023-05-19T06:33:46.137Z,500.63
2023-05-19T06:34:46.060Z,495.00
2023-05-19T06:35:46.149Z,500.63
2023-05-19T06:36:45.973Z,540.00
2023-05-19T06:37:46.165Z,573.75
2023-05-19T06:38:45.887Z,585.00
2023-05-19T06:39:47.055Z,568.13
2023-05-19T06:40:45.983Z,551.25
2023-05-19T06:41:45.756Z,556.88
2023-05-19T06:42:46.029Z,562.50
2023-05-19T06:43:45.674Z,568.13
2023-05-19T06:44:45.805Z,579.38
2023-05-19T06:45:45.734Z,585.00
2023-05-19T06:46:45.844Z,585.00
2023-05-19T06:47:45.512Z,562.50
2023-05-19T06:48:45.638Z,545.63
2023-05-19T06:49:45.410Z,534.38
2023-05-19T06:50:46.666Z,534.38
2023-05-19T06:51:45.376Z,568.13
2023-05-19T06:52:45.459Z,573.75
2023-05-19T06:53:45.237Z,590.63
2023-05-19T06:54:46.696Z,613.13
2023-05-19T06:55:58.120Z,630.00
2023-05-19T06:56:45.132Z,641.25
2023-05-19T06:57:45.068Z,680.63
2023-05-19T06:58:45.031Z,708.75
2023-05-19T06:59:46.121Z,731.25
2023-05-19T07:00:44.958Z,736.88
2023-05-19T07:01:45.156Z,725.63
2023-05-19T07:02:44.907Z,714.38
2023-05-19T07:03:45.318Z,686.25
2023-05-19T07:04:44.764Z,675.00
2023-05-19T07:05:44.940Z,669.38
2023-05-19T07:06:44.720Z,652.50
2023-05-19T07:07:44.950Z,646.88
2023-05-19T07:08:44.606Z,652.50
2023-05-19T07:09:44.591Z,663.75
2023-05-19T07:10:44.773Z,663.75
2023-05-19T07:11:44.469Z,669.38
2023-05-19T07:12:44.581Z,686.25
2023-05-19T07:13:44.388Z,703.13
2023-05-19T07:14:44.585Z,703.13
2023-05-19T07:15:44.350Z,686.25
2023-05-19T07:16:45.486Z,646.88
2023-05-19T07:17:44.512Z,585.00
2023-05-19T07:18:44.401Z,511.88
2023-05-19T07:19:44.137Z,579.38
2023-05-19T07:20:44.327Z,686.25
2023-05-19T07:21:45.436Z,753.75
2023-05-19T07:22:44.137Z,776.25
2023-05-19T07:23:43.956Z,708.75
2023-05-19T07:24:44.150Z,601.88
2023-05-19T07:25:43.885Z,523.13
2023-05-19T07:26:45.191Z,478.13
2023-05-19T07:27:44.991Z,438.75
2023-05-19T07:28:44.050Z,421.88
2023-05-19T07:29:45.013Z,393.75
2023-05-19T07:30:43.658Z,382.50
2023-05-19T07:31:44.075Z,410.63
2023-05-19T07:32:44.918Z,466.88
2023-05-19T07:33:43.569Z,472.50
2023-05-19T07:34:43.715Z,540.00
2023-05-19T07:35:43.462Z,500.63
2023-05-19T07:36:43.531Z,489.38
2023-05-19T07:37:43.377Z,601.88
2023-05-19T07:38:44.448Z,680.63
2023-05-19T07:39:43.492Z,551.25
2023-05-19T07:40:43.352Z,438.75
2023-05-19T07:41:43.192Z,478.13
2023-05-19T07:42:43.358Z,489.38
2023-05-19T07:43:43.139Z,455.63
2023-05-19T07:44:43.167Z,466.88
2023-05-19T07:45:43.038Z,478.13
2023-05-19T07:46:43.208Z,495.00
2023-05-19T07:47:42.955Z,433.13
2023-05-19T07:48:43.198Z,416.25
2023-05-19T07:49:42.848Z,427.50
2023-05-19T07:50:43.032Z,410.63
2023-05-19T07:51:42.765Z,410.63
2023-05-19T07:52:42.840Z,399.38
2023-05-19T07:53:42.673Z,393.75
2023-05-19T07:54:42.836Z,382.50
2023-05-19T07:55:42.589Z,388.13
2023-05-19T07:56:42.648Z,410.63
2023-05-19T07:57:42.775Z,472.50
2023-05-19T07:58:43.472Z,585.00
2023-05-19T07:59:42.425Z,736.88
2023-05-19T08:00:42.471Z,736.88
2023-05-19T08:01:42.328Z,826.88
2023-05-19T08:02:42.535Z,995.63
2023-05-19T08:03:42.286Z,1102.50
2023-05-19T08:04:42.314Z,1203.75
2023-05-19T08:05:42.154Z,1293.75
2023-05-19T08:06:42.308Z,1389.38
2023-05-19T08:07:42.076Z,1406.25
2023-05-19T08:08:42.131Z,1389.38
2023-05-19T08:09:42.174Z,1434.38
2023-05-19T08:10:42.140Z,1620.00
2023-05-19T08:11:41.908Z,1597.50
2023-05-19T08:12:41.957Z,1563.75
2023-05-19T08:13:41.828Z,1569.38
2023-05-19T08:14:44.012Z,1575.00
2023-05-19T08:15:41.757Z,1642.50
2023-05-19T08:16:41.773Z,1530.00
2023-05-19T08:17:41.697Z,1254.38
2023-05-19T08:18:41.822Z,1102.50
2023-05-19T08:19:42.672Z,1080.00
2023-05-19T08:20:41.592Z,1057.50
2023-05-19T08:21:41.600Z,1209.38
2023-05-19T08:22:41.450Z,1518.75
2023-05-19T08:23:42.437Z,1676.25
2023-05-19T08:24:41.365Z,1749.38
2023-05-19T08:25:41.632Z,1766.25
2023-05-19T08:26:41.295Z,1788.75
2023-05-19T08:27:41.246Z,1828.13
2023-05-19T08:28:42.271Z,1856.25
2023-05-19T08:29:41.207Z,1918.13
2023-05-19T08:30:41.262Z,1923.75
2023-05-19T08:31:41.376Z,1816.88
2023-05-19T08:32:41.302Z,1710.00
2023-05-19T08:33:41.028Z,1681.88
2023-05-19T08:34:42.108Z,1597.50
2023-05-19T08:35:40.917Z,1681.88
2023-05-19T08:36:41.099Z,1738.13
2023-05-19T08:37:40.967Z,1805.63
2023-05-19T08:38:40.911Z,1828.13
2023-05-19T08:39:40.757Z,1833.75
2023-05-19T08:40:40.825Z,2058.75
2023-05-19T08:41:40.672Z,1777.50
2023-05-19T08:42:40.835Z,1755.00
2023-05-19T08:43:40.601Z,1845.00
2023-05-19T08:44:40.651Z,3369.38
2023-05-19T08:45:40.528Z,2002.50
2023-05-19T08:46:41.723Z,1873.13
2023-05-19T08:47:40.478Z,1805.63
2023-05-19T08:48:41.697Z,1766.25
2023-05-19T08:49:40.373Z,1698.75
2023-05-19T08:50:40.488Z,1642.50
2023-05-19T08:51:40.492Z,1620.00
2023-05-19T08:52:40.242Z,1631.25
2023-05-19T08:53:40.300Z,1642.50
2023-05-19T08:54:40.152Z,1614.38
2023-05-19T08:55:40.314Z,1597.50
2023-05-19T08:56:40.115Z,1670.63
2023-05-19T08:57:40.033Z,1856.25
2023-05-19T08:58:39.994Z,2019.38
2023-05-19T08:59:41.166Z,1968.75
2023-05-19T09:00:39.936Z,1856.25
2023-05-19T09:01:40.164Z,1822.50
2023-05-19T09:02:50.354Z,1918.13
2023-05-19T09:03:39.974Z,2098.13
2023-05-19T09:04:40.185Z,2362.50
2023-05-19T09:05:39.728Z,2863.13
2023-05-19T09:06:39.796Z,2244.38
2023-05-19T09:07:39.635Z,1856.25
2023-05-19T09:08:39.698Z,1428.75
2023-05-19T09:09:39.585Z,1192.50
2023-05-19T09:10:39.715Z,1012.50
2023-05-19T09:11:39.479Z,995.63
2023-05-19T09:12:40.544Z,1141.88
2023-05-19T09:13:39.419Z,1215.00
2023-05-19T09:14:39.532Z,1170.00
2023-05-19T09:15:39.382Z,1552.50
2023-05-19T09:16:39.309Z,1901.25
2023-05-19T09:17:39.377Z,1670.63
2023-05-19T09:18:39.228Z,1333.13
2023-05-19T09:19:40.398Z,1102.50
2023-05-19T09:20:39.116Z,1147.50
2023-05-19T09:21:39.391Z,1333.13
2023-05-19T09:22:39.038Z,1445.63
2023-05-19T09:23:40.214Z,1507.50
2023-05-19T09:24:38.988Z,1783.13
2023-05-19T09:25:40.025Z,1935.00
2023-05-19T09:26:38.882Z,1912.50
2023-05-19T09:27:39.011Z,1839.38
2023-05-19T09:28:39.073Z,1783.13
2023-05-19T09:29:38.828Z,1800.00
2023-05-19T09:30:38.721Z,1895.63
2023-05-19T09:31:38.862Z,1935.00
2023-05-19T09:32:38.654Z,1856.25
2023-05-19T09:33:39.734Z,1755.00
2023-05-19T09:34:39.679Z,1665.00
2023-05-19T09:35:38.530Z,1636.88
2023-05-19T09:36:38.677Z,1608.75
2023-05-19T09:37:38.439Z,1569.38
2023-05-19T09:38:38.482Z,1535.63
2023-05-19T09:39:38.365Z,1490.63
2023-05-19T09:40:38.354Z,1468.13
2023-05-19T09:41:38.507Z,1434.38
2023-05-19T09:42:38.246Z,1395.00
2023-05-19T09:43:38.328Z,1366.88
2023-05-19T09:44:38.167Z,1350.00
2023-05-19T09:45:41.013Z,1316.25
2023-05-19T09:46:39.200Z,1260.00
2023-05-19T09:47:38.119Z,1254.38
2023-05-19T09:48:39.175Z,1293.75
2023-05-19T09:49:37.962Z,1372.50
2023-05-19T09:50:38.189Z,1434.38
2023-05-19T09:51:37.908Z,1417.50
2023-05-19T09:52:38.036Z,1411.88
2023-05-19T09:53:37.979Z,1406.25
2023-05-19T09:54:37.762Z,1400.63
2023-05-19T09:55:38.810Z,1383.75
2023-05-19T09:56:37.680Z,1344.38
2023-05-19T09:57:37.803Z,1321.88
2023-05-19T09:58:37.712Z,1327.50
2023-05-19T09:59:37.572Z,1344.38
2023-05-19T10:00:37.625Z,1355.63
2023-05-19T10:01:38.922Z,1383.75
2023-05-19T10:02:37.461Z,1411.88
2023-05-19T10:03:37.648Z,1395.00
2023-05-19T10:04:37.372Z,1338.75
2023-05-19T10:05:38.473Z,1321.88
2023-05-19T10:06:38.490Z,1333.13
2023-05-19T10:07:37.249Z,1378.13
2023-05-19T10:08:38.288Z,1440.00
2023-05-19T10:09:37.163Z,1541.25
2023-05-19T10:10:37.283Z,1580.63
2023-05-19T10:11:37.337Z,1563.75
2023-05-19T10:12:37.301Z,1535.63
2023-05-19T10:13:37.010Z,1563.75
2023-05-19T10:14:38.136Z,1541.25
2023-05-19T10:15:46.712Z,1462.50
2023-05-19T10:16:36.933Z,1423.13
2023-05-19T10:17:37.002Z,1445.63
2023-05-19T10:18:39.774Z,1541.25
2023-05-19T10:19:36.785Z,1631.25
2023-05-19T10:20:37.010Z,1681.88
2023-05-19T10:21:36.770Z,1704.38
2023-05-19T10:22:36.764Z,1738.13
2023-05-19T10:23:36.772Z,1805.63
2023-05-19T10:24:36.572Z,1901.25
2023-05-19T10:25:36.799Z,1957.50
2023-05-19T10:26:36.484Z,1935.00
2023-05-19T10:27:36.590Z,2008.13
2023-05-19T10:28:36.405Z,2289.38
2023-05-19T10:29:37.688Z,1906.88
2023-05-19T10:30:37.434Z,1771.88
2023-05-19T10:31:36.342Z,1828.13
2023-05-19T10:32:37.465Z,1957.50
2023-05-19T10:33:36.218Z,1710.00
2023-05-19T10:34:36.230Z,1766.25
2023-05-19T10:35:36.315Z,1805.63
2023-05-19T10:36:36.247Z,1726.88
2023-05-19T10:37:36.058Z,1580.63
2023-05-19T10:38:36.265Z,1552.50
2023-05-19T10:39:35.972Z,1513.13
2023-05-19T10:40:37.304Z,1507.50
2023-05-19T10:41:35.905Z,1456.88
2023-05-19T10:42:36.088Z,1451.25
2023-05-19T10:43:35.893Z,1456.88
2023-05-19T10:44:36.924Z,1530.00
2023-05-19T10:45:35.927Z,1715.63
2023-05-19T10:46:35.947Z,1923.75
2023-05-19T10:47:35.694Z,2846.25
2023-05-19T10:48:35.927Z,1996.88
2023-05-19T10:49:35.601Z,1923.75
2023-05-19T10:50:36.773Z,1856.25
2023-05-19T10:51:56.640Z,1845.00
2023-05-19T10:52:35.474Z,1867.50
2023-05-19T10:53:35.434Z,1935.00
2023-05-19T10:54:35.561Z,2025.00
2023-05-19T10:55:35.421Z,2081.25
2023-05-19T10:56:36.457Z,2216.25
2023-05-19T10:57:35.309Z,2362.50
2023-05-19T10:58:35.395Z,2244.38
2023-05-19T10:59:35.238Z,2188.13
2023-05-19T11:00:36.445Z,2306.25
2023-05-19T11:01:35.213Z,3251.25
2023-05-19T11:02:35.471Z,3223.13
2023-05-19T11:03:35.050Z,2272.50
2023-05-19T11:04:35.252Z,2131.88
2023-05-19T11:05:35.331Z,2396.25
2023-05-19T11:06:35.137Z,2311.88
2023-05-19T11:07:34.898Z,1974.38
2023-05-19T11:08:35.154Z,1996.88
2023-05-19T11:09:40.368Z,2109.38
2023-05-19T11:10:34.974Z,2098.13
2023-05-19T11:11:36.026Z,2188.13
2023-05-19T11:12:34.701Z,5878.13
2023-05-19T11:13:36.713Z,2756.25
2023-05-19T11:14:34.639Z,2666.25
2023-05-19T11:15:35.038Z,4798.13
2023-05-19T11:16:34.567Z,4809.38
2023-05-19T11:17:35.123Z,2576.25
2023-05-19T11:18:34.619Z,2497.50
2023-05-19T11:19:34.490Z,2193.75
2023-05-19T11:20:35.699Z,1828.13
2023-05-19T11:21:34.473Z,1788.75
2023-05-19T11:22:35.666Z,1985.63
2023-05-19T11:23:35.585Z,2216.25
2023-05-19T11:24:34.452Z,1946.25
2023-05-19T11:25:34.334Z,2480.63
2023-05-19T11:26:34.267Z,6063.75
2023-05-19T11:27:34.164Z,5979.38
2023-05-19T11:28:34.479Z,2205.00
2023-05-19T11:29:34.864Z,2148.75
2023-05-19T11:30:34.037Z,2407.50
2023-05-19T11:31:34.245Z,4741.88
2023-05-19T11:32:34.102Z,2148.75
2023-05-19T11:33:35.132Z,2075.63
2023-05-19T11:34:33.909Z,2160.00
2023-05-19T11:35:35.485Z,2407.50
2023-05-19T11:36:33.827Z,2649.38
2023-05-19T11:37:34.964Z,3920.63
2023-05-19T11:38:36.042Z,4545.00
2023-05-19T11:39:33.965Z,2638.13
2023-05-19T11:40:33.688Z,2576.25
2023-05-19T11:41:33.647Z,2683.13
2023-05-19T11:42:33.767Z,2936.25
2023-05-19T11:43:33.581Z,2705.63
2023-05-19T11:44:34.861Z,2660.63
2023-05-19T11:45:33.874Z,2964.38
2023-05-19T11:46:33.650Z,2784.38
2023-05-19T11:47:42.516Z,7312.50
2023-05-19T11:48:33.496Z,2463.75
2023-05-19T11:49:33.616Z,2176.88
2023-05-19T11:50:33.373Z,2053.13
2023-05-19T11:51:33.427Z,1968.75
2023-05-19T11:52:33.257Z,1980.00
2023-05-19T11:53:34.681Z,2030.63
2023-05-19T11:54:33.183Z,1996.88
2023-05-19T11:55:33.454Z,1867.50
2023-05-19T11:56:33.122Z,1811.25
2023-05-19T11:57:33.260Z,1755.00
2023-05-19T11:58:33.048Z,1715.63
2023-05-19T11:59:34.960Z,1738.13
2023-05-19T12:00:33.004Z,1822.50
2023-05-19T12:01:33.097Z,1901.25
2023-05-19T12:02:32.949Z,2008.13
2023-05-19T12:03:33.256Z,2210.63
2023-05-19T12:04:32.845Z,2165.63
2023-05-19T12:05:35.444Z,2126.25
2023-05-19T12:06:33.146Z,2683.13
2023-05-19T12:07:34.984Z,2182.50
2023-05-19T12:08:32.716Z,2103.75
2023-05-19T12:09:32.740Z,2081.25
2023-05-19T12:10:32.619Z,2008.13
2023-05-19T12:11:32.772Z,2126.25
2023-05-19T12:12:32.574Z,2261.25
2023-05-19T12:13:32.980Z,2469.38
2023-05-19T12:14:32.466Z,5011.88
2023-05-19T12:15:32.749Z,2362.50
2023-05-19T12:16:33.502Z,2188.13
2023-05-19T12:17:53.564Z,2193.75
2023-05-19T12:18:32.446Z,2193.75
2023-05-19T12:19:32.454Z,2430.00
2023-05-19T12:20:32.257Z,1991.25
2023-05-19T12:21:34.147Z,1890.00
2023-05-19T12:22:32.190Z,2137.50
2023-05-19T12:23:32.224Z,1766.25
2023-05-19T12:24:32.203Z,1710.00
2023-05-19T12:25:33.677Z,5754.38
2023-05-19T12:26:32.027Z,6069.38
2023-05-19T12:27:34.739Z,5956.88
2023-05-19T12:28:31.956Z,3594.38
2023-05-19T12:29:32.077Z,5411.25
2023-05-19T12:30:32.627Z,3690.00
2023-05-19T12:31:32.092Z,4573.13
2023-05-19T12:32:31.842Z,5208.75
2023-05-19T12:33:33.427Z,5040.00
2023-05-19T12:34:31.753Z,5293.13
2023-05-19T12:35:31.917Z,5310.00
2023-05-19T12:36:32.930Z,2621.25
2023-05-19T12:37:31.655Z,2351.25